Ypsilanti, North Dakota
Current Conditions -  °F | °C
As of 1:56 AM on Friday 31 Oct 2014 (Local Time) from KJMS Reporting Station
Clear Clear  
Wind Chill:   Ceiling: Unl
Heat Index: 17°   Visibility: 10mi
Dew Point: 14°   Wind: 6mph
Humidity: 88%   Direction: 30°NNE
Pressure: 30.57"   Gusts: NA
Location:  46.78°N, 98.57°W
Report Text: KJMS 310656Z AUTO 03005KT 10SM CLR M08/M10 A3057 RMK AO2 SLP378 T10831100
Loading
Personal Weather Stations






























Interactive Weather Map
Tropical Storm Tracking
New forecast layout! Learn more

10-Day Weather Forecast

Advertisements
Track Severe Weather on mobile